aviador You're here:

CYZV Decoded Metar

SEPT-ILES in QC, CANADA
Report Time2017-06-25 20:00:00
UTC Time2017-06-25 20:34:39
Flight Rules vfr VFR
Wind210° at 13 kt
W.Decomp.*RWY 27: 10.0 kt HW 8.4 kt LCW
RWY 31: 2.3 kt HW 12.8 kt LCW
W.Rank210° ranks 26
Current wind is above 210° avg. (8.5)
Visibility9999 m
Phenomena:N/A
Clouds:Scattered 080 Hf
Expected CloudBase > 3,600 ft AGL from Temp-Dew spread
CeilingNone
Temp18°C (ISA +3)
Dew Point09°C (56% RH)
AAT13.1°C
QNH1003 hPa
Density Alt1,070 ft
Elevation180 ft
Report Wrong Elevation
Raw Report
CYZV 252000Z 21013KT 30SM SCT080 18/09 A2963 RMK CU3 SLP037
DENSITY ALT 900FT=

Extra information for CYZV:More info

Metar Taf Metar & Taf Last 4 Metars F.Rules Stats Wind Profile Meteogram Temp Stats Airport Information Weather charts Add Link Nearby VenuesMetar ALERT Operation Metar Decoded Social comments